createdAt,value
2018-12-18T00:01:45.192Z,28.33
2018-12-18T00:04:13.329Z,27.33
2018-12-18T00:06:41.488Z,27.50
2018-12-18T00:09:10.075Z,26.57
2018-12-18T00:11:38.273Z,28.10
2018-12-18T00:14:06.454Z,31.40
2018-12-18T00:16:34.568Z,31.43
2018-12-18T00:19:02.813Z,32.97
2018-12-18T00:21:30.959Z,35.70
2018-12-18T00:23:59.504Z,37.23
2018-12-18T00:26:27.623Z,39.57
2018-12-18T00:28:55.771Z,40.33
2018-12-18T00:31:23.926Z,41.30
2018-12-18T00:33:52.122Z,42.40
2018-12-18T00:36:20.279Z,45.43
2018-12-18T00:38:48.389Z,46.00
2018-12-18T00:41:17.257Z,46.40
2018-12-18T00:43:45.432Z,44.87
2018-12-18T00:46:13.699Z,45.73
2018-12-18T00:48:41.940Z,45.77
2018-12-18T00:51:10.229Z,47.87
2018-12-18T00:53:38.332Z,45.37
2018-12-18T00:56:07.010Z,47.77
2018-12-18T00:58:35.193Z,46.67
2018-12-18T01:01:03.360Z,47.37
2018-12-18T01:03:31.476Z,48.50
2018-12-18T01:05:59.628Z,45.50
2018-12-18T01:08:27.796Z,45.97
2018-12-18T01:10:55.987Z,45.83
2018-12-18T01:13:24.217Z,46.50
2018-12-18T01:15:52.466Z,46.70
2018-12-18T01:18:20.681Z,47.13
2018-12-18T01:20:48.924Z,46.57
2018-12-18T01:23:17.129Z,42.90
2018-12-18T01:25:45.476Z,44.73
2018-12-18T01:28:13.606Z,44.03
2018-12-18T01:30:41.751Z,42.00
2018-12-18T01:33:09.972Z,41.10
2018-12-18T01:35:38.183Z,41.40
2018-12-18T01:38:06.401Z,42.87
2018-12-18T01:40:34.570Z,41.53
2018-12-18T01:43:02.707Z,41.23
2018-12-18T01:45:31.033Z,41.30
2018-12-18T01:47:59.176Z,42.33
2018-12-18T01:50:27.384Z,39.73
2018-12-18T01:52:55.524Z,39.07
2018-12-18T01:55:23.688Z,40.17
2018-12-18T01:57:51.850Z,38.93
2018-12-18T02:00:20.021Z,37.83
2018-12-18T02:02:48.117Z,38.43
2018-12-18T02:05:16.219Z,37.47
2018-12-18T02:07:44.322Z,37.63
2018-12-18T02:10:12.476Z,37.63
2018-12-18T02:12:40.611Z,36.03
2018-12-18T02:15:08.730Z,34.40
2018-12-18T02:17:36.927Z,34.93
2018-12-18T02:20:05.594Z,34.37
2018-12-18T02:22:33.777Z,33.63
2018-12-18T02:25:01.882Z,34.23
2018-12-18T02:27:30.029Z,34.00
2018-12-18T02:29:58.134Z,33.87
2018-12-18T02:32:26.243Z,34.87
2018-12-18T02:34:54.341Z,34.50
2018-12-18T02:37:22.440Z,33.50
2018-12-18T02:39:50.540Z,33.97
2018-12-18T02:42:18.638Z,34.20
2018-12-18T02:44:46.848Z,32.53
2018-12-18T02:47:15.035Z,32.17
2018-12-18T02:49:43.192Z,31.13
2018-12-18T02:52:11.352Z,33.93
2018-12-18T02:54:39.505Z,31.83
2018-12-18T02:57:07.599Z,32.97
2018-12-18T02:59:35.764Z,32.77
2018-12-18T03:02:03.884Z,31.30
2018-12-18T03:04:32.042Z,30.80
2018-12-18T03:07:00.395Z,29.83
2018-12-18T03:09:28.598Z,28.87
2018-12-18T03:11:57.169Z,29.23
2018-12-18T03:14:25.326Z,29.83
2018-12-18T03:16:53.516Z,32.97
2018-12-18T03:19:21.668Z,32.93
2018-12-18T03:21:49.767Z,32.17
2018-12-18T03:24:17.930Z,32.80
2018-12-18T03:26:46.162Z,35.47
2018-12-18T03:29:14.472Z,35.40
2018-12-18T03:31:46.047Z,36.00
2018-12-18T03:34:14.142Z,36.00
2018-12-18T03:36:42.265Z,34.30
2018-12-18T03:39:10.493Z,33.47
2018-12-18T03:41:38.638Z,35.90
2018-12-18T03:44:06.812Z,35.00
2018-12-18T03:46:34.984Z,34.10
2018-12-18T03:49:03.128Z,33.23
2018-12-18T03:51:31.329Z,33.07
2018-12-18T03:53:59.488Z,33.30
2018-12-18T03:56:27.682Z,33.43
2018-12-18T03:58:55.829Z,35.20
2018-12-18T04:01:23.931Z,33.90
2018-12-18T04:03:52.079Z,34.60
2018-12-18T04:06:20.228Z,34.50
2018-12-18T04:08:48.357Z,36.33
2018-12-18T04:11:16.572Z,32.23
2018-12-18T04:13:44.742Z,33.97
2018-12-18T04:16:12.959Z,34.20
2018-12-18T04:18:41.130Z,33.80
2018-12-18T04:21:09.268Z,33.63
2018-12-18T04:23:37.374Z,34.87
2018-12-18T04:26:05.516Z,34.07
2018-12-18T04:28:33.704Z,35.63
2018-12-18T04:31:01.886Z,34.43
2018-12-18T04:33:30.061Z,34.47
2018-12-18T04:35:58.183Z,35.53
2018-12-18T04:38:26.414Z,34.00
2018-12-18T04:40:54.584Z,36.03
2018-12-18T04:43:22.681Z,35.43
2018-12-18T04:45:50.954Z,34.70
2018-12-18T04:48:19.065Z,35.27
2018-12-18T04:50:47.280Z,35.27
2018-12-18T04:53:15.463Z,35.80
2018-12-18T04:55:43.660Z,36.10
2018-12-18T04:58:11.781Z,36.90
2018-12-18T05:00:39.881Z,35.10
2018-12-18T05:03:08.017Z,35.43
2018-12-18T05:05:36.186Z,35.47
2018-12-18T05:08:04.293Z,34.07
2018-12-18T05:10:32.385Z,35.00
2018-12-18T05:13:00.544Z,35.17
2018-12-18T05:15:28.701Z,32.80
2018-12-18T05:17:56.793Z,33.63
2018-12-18T05:35:57.394Z,34.33
2018-12-18T05:38:25.597Z,33.10
2018-12-18T05:40:53.748Z,32.47
2018-12-18T05:43:21.939Z,32.77
2018-12-18T05:45:50.114Z,34.60
2018-12-18T05:48:18.282Z,33.87
2018-12-18T05:50:46.420Z,34.73
2018-12-18T05:53:14.622Z,30.50
2018-12-18T05:55:42.777Z,30.57
2018-12-18T05:58:10.976Z,32.37
2018-12-18T06:00:39.096Z,31.00
2018-12-18T06:03:07.210Z,31.77
2018-12-18T06:05:35.412Z,30.70
2018-12-18T06:08:03.553Z,28.87
2018-12-18T06:10:31.664Z,27.30
2018-12-18T06:12:59.792Z,26.77
2018-12-18T06:15:27.995Z,27.73
2018-12-18T06:17:56.187Z,28.03
2018-12-18T06:20:24.328Z,25.73
2018-12-18T06:22:52.472Z,26.50
2018-12-18T06:25:20.572Z,25.63
2018-12-18T06:27:48.668Z,26.07
2018-12-18T06:30:16.817Z,24.43
2018-12-18T06:32:44.966Z,24.63
2018-12-18T06:35:13.168Z,25.90
2018-12-18T06:37:41.358Z,24.33
2018-12-18T06:40:09.472Z,23.90
2018-12-18T06:42:37.576Z,24.77
2018-12-18T06:45:05.839Z,23.33
2018-12-18T06:47:33.940Z,24.03
2018-12-18T06:50:02.127Z,23.57
2018-12-18T06:52:30.490Z,21.33
2018-12-18T06:54:58.660Z,23.87
2018-12-18T06:57:26.756Z,22.47
2018-12-18T06:59:54.896Z,21.83
2018-12-18T07:02:23.118Z,21.70
2018-12-18T07:04:51.258Z,21.73
2018-12-18T07:07:19.420Z,21.60
2018-12-18T07:09:47.539Z,21.33
2018-12-18T07:12:15.839Z,21.97
2018-12-18T07:14:43.940Z,20.47
2018-12-18T07:17:12.089Z,20.73
2018-12-18T07:19:40.301Z,23.70
2018-12-18T07:22:08.439Z,25.03
2018-12-18T07:24:36.538Z,24.70
2018-12-18T07:27:04.709Z,26.67
2018-12-18T07:29:32.982Z,26.23
2018-12-18T07:32:01.130Z,26.73
2018-12-18T07:34:33.390Z,31.43
2018-12-18T07:36:59.424Z,30.37
2018-12-18T07:39:27.608Z,33.67
2018-12-18T07:41:55.721Z,32.47
2018-12-18T07:44:23.853Z,33.10
2018-12-18T07:46:52.024Z,31.70
2018-12-18T07:49:20.213Z,32.50
2018-12-18T07:51:48.416Z,31.70
2018-12-18T07:54:16.610Z,31.23
2018-12-18T07:56:44.767Z,30.50
2018-12-18T07:59:12.949Z,29.37
2018-12-18T08:01:41.088Z,31.57
2018-12-18T08:04:09.232Z,28.17
2018-12-18T08:06:37.451Z,28.87
2018-12-18T08:09:06.861Z,30.63
2018-12-18T08:11:35.010Z,30.43
2018-12-18T08:14:03.232Z,32.47
2018-12-18T08:16:31.357Z,32.73
2018-12-18T08:18:59.557Z,33.70
2018-12-18T08:21:27.736Z,34.47
2018-12-18T08:23:55.905Z,32.67
2018-12-18T08:26:24.037Z,31.93
2018-12-18T08:28:52.174Z,32.03
2018-12-18T08:31:20.289Z,31.47
2018-12-18T08:33:48.515Z,30.87
2018-12-18T08:36:16.737Z,28.70
2018-12-18T08:38:44.947Z,27.20
2018-12-18T08:41:13.099Z,27.63
2018-12-18T08:43:41.304Z,27.13
2018-12-18T08:46:10.384Z,26.77
2018-12-18T08:48:38.802Z,26.77
2018-12-18T08:51:06.929Z,26.87
2018-12-18T08:53:35.153Z,27.60
2018-12-18T08:56:03.318Z,27.87
2018-12-18T08:58:31.490Z,27.30
2018-12-18T09:00:59.700Z,26.00
2018-12-18T09:03:28.009Z,26.70
2018-12-18T09:05:56.171Z,26.27
2018-12-18T09:08:24.389Z,25.67
2018-12-18T09:10:52.553Z,26.57
2018-12-18T09:13:20.767Z,25.33
2018-12-18T09:15:57.623Z,25.80
2018-12-18T09:18:25.754Z,26.47
2018-12-18T09:20:53.944Z,26.80
2018-12-18T09:23:22.177Z,27.27
2018-12-18T09:25:50.281Z,26.20
2018-12-18T09:28:18.461Z,26.50
2018-12-18T09:30:46.612Z,25.03
2018-12-18T09:33:14.817Z,24.03
2018-12-18T09:35:49.560Z,24.47
2018-12-18T09:38:18.821Z,22.43
2018-12-18T09:40:52.518Z,23.10
2018-12-18T09:43:26.144Z,23.10
2018-12-18T09:45:54.327Z,23.13
2018-12-18T09:48:22.446Z,21.97
2018-12-18T09:50:50.589Z,22.80
2018-12-18T09:53:18.944Z,23.20
2018-12-18T09:55:47.051Z,22.10
2018-12-18T09:58:15.215Z,21.90
2018-12-18T10:00:43.350Z,23.03
2018-12-18T10:03:11.522Z,21.00
2018-12-18T10:05:39.689Z,21.97
2018-12-18T10:08:07.913Z,19.13
2018-12-18T10:10:36.049Z,19.57
2018-12-18T10:13:04.231Z,21.27
2018-12-18T10:15:32.359Z,21.67
2018-12-18T10:18:00.573Z,21.33
2018-12-18T10:20:28.785Z,21.07
2018-12-18T10:22:56.993Z,21.07
2018-12-18T10:25:25.174Z,21.10
2018-12-18T10:27:53.354Z,21.07
2018-12-18T10:30:21.510Z,19.93
2018-12-18T10:32:49.709Z,20.57
2018-12-18T10:35:17.870Z,19.67
2018-12-18T10:37:45.980Z,18.30
2018-12-18T10:40:14.131Z,17.40
2018-12-18T10:42:42.329Z,18.40
2018-12-18T10:45:13.831Z,17.83
2018-12-18T10:47:42.161Z,17.60
2018-12-18T10:50:10.279Z,16.77
2018-12-18T10:52:38.401Z,16.47
2018-12-18T10:55:06.768Z,16.53
2018-12-18T10:57:34.932Z,14.77
2018-12-18T11:00:03.604Z,14.47
2018-12-18T11:02:31.764Z,14.87
2018-12-18T11:04:59.906Z,15.13
2018-12-18T11:07:28.031Z,14.47
2018-12-18T11:09:56.210Z,14.97
2018-12-18T11:12:30.111Z,14.17
2018-12-18T11:14:58.309Z,15.40
2018-12-18T11:17:26.474Z,14.70
2018-12-18T11:19:54.614Z,14.50
2018-12-18T11:22:22.831Z,15.77
2018-12-18T11:24:50.992Z,15.20
2018-12-18T11:27:19.132Z,14.90
2018-12-18T11:29:47.333Z,15.37
2018-12-18T11:32:15.989Z,15.80
2018-12-18T11:34:44.209Z,16.20
2018-12-18T11:37:12.353Z,15.50
2018-12-18T11:39:41.164Z,17.07
2018-12-18T11:42:09.336Z,16.00
2018-12-18T11:44:37.505Z,16.47
2018-12-18T11:47:05.643Z,16.20
2018-12-18T11:49:33.837Z,15.60
2018-12-18T11:52:02.063Z,14.80
2018-12-18T11:54:30.218Z,16.37
2018-12-18T11:56:58.397Z,14.93
2018-12-18T11:59:26.715Z,13.67
2018-12-18T12:01:54.845Z,13.60
2018-12-18T12:04:22.964Z,13.80
2018-12-18T12:06:51.097Z,12.50
2018-12-18T12:09:19.352Z,13.10
2018-12-18T12:11:47.471Z,12.57
2018-12-18T12:14:15.596Z,11.60
2018-12-18T12:16:43.760Z,11.40
2018-12-18T12:19:11.878Z,10.93
2018-12-18T12:21:39.982Z,9.97
2018-12-18T12:24:08.177Z,9.37
2018-12-18T12:26:36.346Z,9.50
2018-12-18T12:29:04.449Z,8.17
2018-12-18T12:31:32.628Z,8.00
2018-12-18T12:34:01.121Z,8.43
2018-12-18T12:36:29.880Z,7.97
2018-12-18T12:38:58.936Z,7.40
2018-12-18T12:41:27.141Z,7.83
2018-12-18T12:43:55.285Z,7.27
2018-12-18T12:46:23.407Z,6.83
2018-12-18T12:48:55.786Z,7.00
2018-12-18T12:51:24.048Z,7.00
2018-12-18T12:53:52.280Z,7.93
2018-12-18T12:56:20.410Z,6.80
2018-12-18T12:58:48.576Z,7.83
2018-12-18T13:01:16.707Z,7.30
2018-12-18T13:03:44.924Z,7.13
2018-12-18T13:06:13.050Z,6.77
2018-12-18T13:08:41.243Z,6.80
2018-12-18T13:11:09.409Z,6.73
2018-12-18T13:13:37.565Z,6.30
2018-12-18T13:16:05.791Z,5.80
2018-12-18T13:18:34.172Z,6.30
2018-12-18T13:21:02.306Z,6.50
2018-12-18T13:23:30.417Z,6.30
2018-12-18T13:25:58.605Z,5.97
2018-12-18T13:28:27.033Z,5.67
2018-12-18T13:30:55.165Z,5.47
2018-12-18T13:33:23.407Z,5.77
2018-12-18T13:35:51.557Z,5.73
2018-12-18T13:38:19.696Z,5.90
2018-12-18T13:40:47.838Z,6.03
2018-12-18T13:43:15.961Z,4.83
2018-12-18T13:45:44.087Z,5.53
2018-12-18T13:48:12.242Z,7.00
2018-12-18T13:50:40.461Z,5.10
2018-12-18T13:53:08.661Z,5.50
2018-12-18T13:55:36.892Z,5.10
2018-12-18T13:58:05.027Z,5.10
2018-12-18T14:00:33.212Z,5.23
2018-12-18T14:03:02.127Z,5.07
2018-12-18T14:05:30.501Z,5.60
2018-12-18T14:07:58.647Z,4.70
2018-12-18T14:10:26.850Z,4.93
2018-12-18T14:12:56.991Z,4.80
2018-12-18T14:15:25.539Z,5.90
2018-12-18T14:17:54.166Z,5.43
2018-12-18T14:20:22.370Z,5.60
2018-12-18T14:22:50.574Z,5.33
2018-12-18T14:25:19.564Z,4.70
2018-12-18T14:27:47.707Z,4.87
2018-12-18T14:30:16.516Z,5.17
2018-12-18T14:32:44.699Z,5.10
2018-12-18T14:35:12.810Z,5.07
2018-12-18T14:37:40.946Z,4.40
2018-12-18T14:40:09.128Z,4.97
2018-12-18T14:42:37.271Z,5.00
2018-12-18T14:45:05.708Z,4.33
2018-12-18T14:47:33.909Z,4.70
2018-12-18T14:50:02.384Z,4.47
2018-12-18T14:52:30.644Z,5.30
2018-12-18T14:54:59.417Z,4.57
2018-12-18T14:57:27.685Z,4.80
2018-12-18T14:59:55.814Z,4.60
2018-12-18T15:02:24.141Z,4.83
2018-12-18T15:04:52.340Z,4.83
2018-12-18T15:07:20.568Z,5.50
2018-12-18T15:09:49.887Z,4.80
2018-12-18T15:12:18.514Z,5.20
2018-12-18T15:14:46.754Z,5.37
2018-12-18T15:17:14.956Z,5.67
2018-12-18T15:19:43.248Z,4.93
2018-12-18T15:22:11.362Z,5.03
2018-12-18T15:24:40.234Z,4.63
2018-12-18T15:27:08.517Z,4.90
2018-12-18T15:29:36.757Z,4.60
2018-12-18T15:32:04.946Z,4.20
2018-12-18T15:34:33.065Z,4.33
2018-12-18T15:37:01.821Z,4.30
2018-12-18T15:39:30.628Z,5.30
2018-12-18T15:42:01.930Z,4.63
2018-12-18T15:44:31.002Z,4.43
2018-12-18T15:46:59.251Z,4.33
2018-12-18T15:49:27.392Z,4.10
2018-12-18T15:51:55.906Z,4.00
2018-12-18T15:54:24.689Z,4.60
2018-12-18T15:56:52.943Z,4.07
2018-12-18T15:59:21.328Z,4.60
2018-12-18T16:01:49.515Z,4.53
2018-12-18T16:04:17.644Z,5.70
2018-12-18T16:06:45.876Z,4.63
2018-12-18T16:09:14.613Z,5.50
2018-12-18T16:11:42.864Z,6.10
2018-12-18T16:14:11.517Z,5.57
2018-12-18T16:16:41.698Z,5.97
2018-12-18T16:19:10.156Z,6.37
2018-12-18T16:21:38.814Z,5.57
2018-12-18T16:24:07.005Z,5.90
2018-12-18T16:26:35.157Z,5.40
2018-12-18T16:29:03.323Z,5.70
2018-12-18T16:31:31.577Z,6.17
2018-12-18T16:33:59.700Z,5.83
2018-12-18T16:36:27.854Z,5.50
2018-12-18T16:38:56.153Z,4.90
2018-12-18T16:41:24.276Z,5.67
2018-12-18T16:43:52.519Z,5.67
2018-12-18T16:46:20.670Z,5.87
2018-12-18T16:48:48.824Z,5.33
2018-12-18T16:51:17.013Z,5.00
2018-12-18T16:53:45.509Z,5.73
2018-12-18T16:56:13.658Z,4.03
2018-12-18T16:58:41.849Z,4.20
2018-12-18T17:01:10.715Z,4.50
2018-12-18T17:03:39.127Z,4.90
2018-12-18T17:06:08.683Z,4.90
2018-12-18T17:08:36.785Z,4.33
2018-12-18T17:11:04.976Z,5.13
2018-12-18T17:13:33.179Z,5.53
2018-12-18T17:16:01.271Z,4.90
2018-12-18T17:18:29.389Z,4.90
2018-12-18T17:20:57.546Z,5.63
2018-12-18T17:23:25.665Z,5.20
2018-12-18T17:25:53.812Z,5.47
2018-12-18T17:28:21.930Z,5.60
2018-12-18T17:30:50.177Z,4.90
2018-12-18T17:33:18.309Z,4.93
2018-12-18T17:35:46.641Z,4.70
2018-12-18T17:38:15.011Z,5.03
2018-12-18T17:40:43.546Z,5.27
2018-12-18T17:43:11.871Z,4.60
2018-12-18T17:45:39.985Z,4.73
2018-12-18T17:48:08.208Z,4.77
2018-12-18T17:50:36.497Z,4.80
2018-12-18T17:53:04.663Z,4.47
2018-12-18T17:55:32.906Z,5.03
2018-12-18T17:58:01.007Z,4.20
2018-12-18T18:00:29.096Z,4.60
2018-12-18T18:02:57.303Z,4.50
2018-12-18T18:05:25.467Z,5.07
2018-12-18T18:07:54.383Z,4.20
2018-12-18T18:10:22.626Z,4.77
2018-12-18T18:12:52.771Z,4.37
2018-12-18T18:15:21.240Z,4.53
2018-12-18T18:17:49.534Z,4.90
2018-12-18T18:20:17.913Z,4.40
2018-12-18T18:22:46.190Z,4.77
2018-12-18T18:25:14.351Z,4.90
2018-12-18T18:27:42.508Z,4.77
2018-12-18T18:30:11.285Z,5.50
2018-12-18T18:32:40.363Z,4.70
2018-12-18T18:35:09.122Z,5.00
2018-12-18T18:37:37.414Z,5.00
2018-12-18T18:40:06.399Z,5.40
2018-12-18T18:42:34.648Z,5.50
2018-12-18T18:45:03.507Z,5.40
2018-12-18T18:47:32.022Z,5.60
2018-12-18T18:50:00.571Z,4.40
2018-12-18T18:52:29.216Z,5.40
2018-12-18T18:54:57.839Z,5.43
2018-12-18T18:57:26.298Z,5.20
2018-12-18T18:59:54.997Z,5.47
2018-12-18T19:02:23.509Z,6.30
2018-12-18T19:04:51.805Z,5.87
2018-12-18T19:07:20.034Z,6.37
2018-12-18T19:09:48.252Z,5.50
2018-12-18T19:12:16.499Z,5.80
2018-12-18T19:14:44.704Z,5.80
2018-12-18T19:17:12.813Z,5.37
2018-12-18T19:19:40.999Z,5.73
2018-12-18T19:22:09.177Z,6.07
2018-12-18T19:24:37.461Z,6.47
2018-12-18T19:27:05.621Z,6.50
2018-12-18T19:29:33.778Z,6.57
2018-12-18T19:32:01.930Z,5.80
2018-12-18T19:34:30.190Z,5.87
2018-12-18T19:36:58.625Z,6.27
2018-12-18T19:39:27.137Z,5.87
2018-12-18T19:41:55.264Z,6.23
2018-12-18T19:44:23.393Z,6.87
2018-12-18T19:46:51.489Z,5.77
2018-12-18T19:49:19.609Z,6.17
2018-12-18T19:51:47.934Z,6.57
2018-12-18T19:54:16.153Z,6.60
2018-12-18T19:56:44.441Z,6.17
2018-12-18T19:59:12.689Z,6.07
2018-12-18T20:01:40.891Z,6.40
2018-12-18T20:04:09.088Z,6.23
2018-12-18T20:06:37.392Z,6.10
2018-12-18T20:09:06.749Z,6.33
2018-12-18T20:11:35.192Z,6.23
2018-12-18T20:14:03.317Z,6.27
2018-12-18T20:16:31.548Z,6.20
2018-12-18T20:18:59.757Z,5.87
2018-12-18T20:21:27.883Z,6.22
2018-12-18T20:23:56.061Z,5.63
2018-12-18T20:26:24.298Z,7.63
2018-12-18T20:28:52.445Z,6.27
2018-12-18T20:31:20.585Z,5.67
2018-12-18T20:33:48.723Z,6.07
2018-12-18T20:36:16.830Z,5.70
2018-12-18T20:38:45.068Z,5.53
2018-12-18T20:41:13.426Z,5.70
2018-12-18T20:43:41.638Z,6.07
2018-12-18T20:46:09.750Z,5.50
2018-12-18T20:48:37.936Z,6.50
2018-12-18T20:51:06.182Z,6.97
2018-12-18T20:53:34.343Z,5.43
2018-12-18T20:56:02.502Z,5.80
2018-12-18T20:58:30.670Z,5.90
2018-12-18T21:00:58.814Z,6.23
2018-12-18T21:03:26.932Z,6.93
2018-12-18T21:05:55.098Z,6.63
2018-12-18T21:08:23.706Z,6.57
2018-12-18T21:10:52.089Z,6.23
2018-12-18T21:13:26.625Z,5.93
2018-12-18T21:15:54.985Z,7.33
2018-12-18T21:18:23.261Z,6.80
2018-12-18T21:20:52.667Z,5.20
2018-12-18T21:23:20.876Z,6.30
2018-12-18T21:25:49.015Z,5.70
2018-12-18T21:28:17.170Z,5.70
2018-12-18T21:30:45.373Z,6.70
2018-12-18T21:33:13.481Z,5.93
2018-12-18T21:35:42.697Z,6.03
2018-12-18T21:38:10.882Z,6.53
2018-12-18T21:40:39.254Z,6.10
2018-12-18T21:43:07.563Z,5.93
2018-12-18T21:45:35.669Z,5.97
2018-12-18T21:48:03.891Z,5.80
2018-12-18T21:50:32.097Z,5.40
2018-12-18T21:53:00.344Z,5.67
2018-12-18T21:55:28.598Z,5.43
2018-12-18T21:57:56.717Z,5.53
2018-12-18T22:00:24.868Z,6.27
2018-12-18T22:02:53.033Z,6.23
2018-12-18T22:05:21.229Z,5.93
2018-12-18T22:07:49.325Z,5.30
2018-12-18T22:10:17.475Z,5.60
2018-12-18T22:12:45.588Z,5.43
2018-12-18T22:15:13.697Z,5.90
2018-12-18T22:17:41.822Z,6.33
2018-12-18T22:20:10.019Z,5.53
2018-12-18T22:22:38.204Z,5.73
2018-12-18T22:25:06.377Z,5.83
2018-12-18T22:27:34.535Z,5.53
2018-12-18T22:30:02.676Z,5.60
2018-12-18T22:32:31.374Z,5.90
2018-12-18T22:34:59.539Z,5.30
2018-12-18T22:37:27.716Z,5.87
2018-12-18T22:39:55.817Z,6.33
2018-12-18T22:42:23.924Z,5.83
2018-12-18T22:44:52.062Z,6.10
2018-12-18T22:47:20.202Z,5.80
2018-12-18T22:49:48.359Z,5.50
2018-12-18T22:52:16.493Z,5.50
2018-12-18T22:54:44.633Z,5.60
2018-12-18T22:57:13.357Z,5.20
2018-12-18T22:59:41.540Z,4.87
2018-12-18T23:02:15.838Z,5.30
2018-12-18T23:04:44.210Z,6.03
2018-12-18T23:07:12.424Z,5.50
2018-12-18T23:09:41.173Z,5.30
2018-12-18T23:12:09.389Z,5.37
2018-12-18T23:14:37.547Z,5.27
2018-12-18T23:17:05.713Z,5.00
2018-12-18T23:19:33.930Z,4.70
2018-12-18T23:22:02.137Z,5.40
2018-12-18T23:24:30.313Z,5.77
2018-12-18T23:26:58.490Z,4.97
2018-12-18T23:29:26.692Z,5.43
2018-12-18T23:31:54.839Z,4.93
2018-12-18T23:34:22.968Z,5.20
2018-12-18T23:36:51.220Z,4.87
2018-12-18T23:39:19.402Z,5.53
2018-12-18T23:41:47.984Z,5.30
2018-12-18T23:44:16.248Z,5.30
2018-12-18T23:46:44.433Z,5.40
2018-12-18T23:49:12.546Z,5.07
2018-12-18T23:51:40.701Z,5.73
2018-12-18T23:54:08.852Z,5.57
2018-12-18T23:56:37.070Z,5.53
2018-12-18T23:59:05.245Z,5.10
